ローマ/フィウミチーノ の空港の天気 - METARとTAF

ローマ・レオナルド・ダ・ビンチ国際空港 ( LIRF / FCO ) - イタリア ローマ
飛行場実況気象(Metar)
観測時間10/20 06:20 CEST (10/20 04:20 UTC)
風向・風速東 3m/s
視程10km以上
天気現象
少しの雲 雲底高度 1070m
気温14℃
湿度94%
気圧1018hPa
METARLIRF 200420Z 09006KT 9999 FEW035 14/13 Q1018 NOSIG
過去の天気等 Google飛行場航空写真 Wunderground天気予報

過去48時間のMETAR

飛行場予報(TAF)
発表時間: 10/20 01:00 CEST (10/19 23:00 UTC)
予報対象時間: 20日2時 CEST ~ 21日8時 CEST
風向・風速不定 3m/s
視程10km以上
なし
20日8時 CEST ~ 20日10時 CEST に徐々に
風向・風速南東 5m/s
20日13時 CEST ~ 20日17時 CEST に一時的に
風向・風速南南東 8m/s 瞬間風速 13m/s
TAF LIRF 192300Z 2000/2106 VRB05KT CAVOK
BECMG 2006/2008 13010KT
TEMPO 2011/2015 15015G25KT